Terminal Aerodrome Forecast
Issued by NWS Boise, ID

Home | Current Version | Previous Version | Text Only | Print | Product List | Glossary On
Versions: 1 2 3 4 5 6 7 8 9 10 11 12 13 14 15 16 17 18 19 20 21 22 23 24 25
000
FTUS45 KBOI 160520
TAFBOI
TAF
KBOI 160520Z 1606/1706 VRB06KT P6SM BKN150
     FM160800 13007KT P6SM SCT150
     FM162100 33008KT P6SM SCT120
     FM170200 VRB03KT P6SM FEW150=

USA.gov is the U.S. government's official web portal to all federal, state and local government web resources and services.